Terminal Aerodrome Forecast
Issued by NWS

Current Version | Previous Version | Text Only | Print | Product List | Glossary On
Versions: 1 2 3 4 5 6 7 8 9 10 11 12 13 14 15 16 17 18 19 20 21 22 23 24 25 26 27 28 29 30 31 32 33 34 35 36 37 38 39 40 41 42 43 44 45 46 47 48 49 50
000
FTUS41 KCTP 130319 AAC
TAFLNS
TAF AMD
KLNS 130319Z 1303/1324 27007KT 1SM -SN BR OVC018
     FM130400 29010KT 2SM -SN BR BKN018 OVC040
     FM130500 29010G20KT 5SM -SHSN SCT018 OVC040
     FM130700 29016G26KT P6SM BKN050=

USA.gov is the U.S. government's official web portal to all federal, state and local government web resources and services.